KMSN

Dane County Regional-Truax Field Airport

Madison, Wisconsin, USA
METAR KMSN 172153Z 02006KT 10SM FEW031 FEW130 BKN250 27/21 A2997 RMK AO2 SLP142 T02720206
Observed Flight Rules
Aug-17 @ 21:53 UTC (43 minutes ago) Visual Flight Rules
Wind Visibility Clouds
20° at 6 knots 10 miles
  • Few at 3,100' AGL
  • Few at 13,000' AGL
  • Broken at 25,000' AGL
Temperatures Readings
Current 27°C / 81°F
Dewpoint 21°C / 70°F
Humidity 70%
Altimeter 29.97" Hg
Pressure 1014.2 hPa
Elevation 261
METAR KMSN 172153Z 02006KT 10SM FEW031 FEW130 BKN250 27/21 A2997 RMK AO2 SLP142 T02720206
Observed Flight Rules
Aug-17 @ 21:53 UTC
(43 minutes ago)
VFR
Wind Visibility
20° at 6 knots 10 miles
Clouds
  • Few at 3,100' AGL
  • Few at 13,000' AGL
  • Broken at 25,000' AGL
Temperature Dewpoint
27°C / 81°F 21°C / 70°F
Humidity Altimeter Pressure
70% 29.97" Hg 1014.2 hPa